Time;durP1;ratioP1;P1;durP2;ratioP2;P2;SDS_P1;SDS_P2;PMS_P1;PMS_P2;Temp;Humidity;BMP_temperature;BMP_pressure;BME280_temperature;BME280_humidity;BME280_pressure;Samples;Min_cycle;Max_cycle;Signal;HPM_P1;HPM_P2
2023/01/23 00:01:11;;;;;;;16.33;7.97;;;2.60;99.90;;;;;;5008222;28;20038;-66
2023/01/23 00:03:36;;;;;;;14.18;8.02;;;2.60;99.90;;;;;;5006514;28;20478;-66
2023/01/23 00:06:09;;;;;;;14.27;7.53;;;2.60;99.90;;;;;;5022878;28;20032;-66
2023/01/23 00:08:35;;;;;;;17.33;7.97;;;2.60;99.90;;;;;;5032082;28;20477;-66
2023/01/23 00:11:10;;;;;;;14.15;7.30;;;2.60;99.90;;;;;;5023588;28;20406;-66
2023/01/23 00:13:36;;;;;;;17.10;8.48;;;2.60;99.90;;;;;;5023342;28;20042;-66
2023/01/23 00:16:10;;;;;;;15.75;7.97;;;2.60;99.90;;;;;;5018242;28;20061;-66
2023/01/23 00:18:36;;;;;;;15.45;7.25;;;2.60;99.90;;;;;;5020481;28;20049;-66
2023/01/23 00:21:09;;;;;;;17.77;8.50;;;2.60;99.90;;;;;;5020439;28;20045;-66
2023/01/23 00:23:35;;;;;;;17.25;8.18;;;2.60;99.90;;;;;;5017664;28;20038;-67
2023/01/23 00:26:09;;;;;;;15.85;9.02;;;2.60;99.90;;;;;;5022019;28;20088;-67
2023/01/23 00:28:36;;;;;;;19.88;8.70;;;2.60;99.90;;;;;;5023107;28;20330;-66
2023/01/23 00:31:11;;;;;;;18.05;9.20;;;2.60;99.90;;;;;;5019819;28;20052;-66
2023/01/23 00:33:38;;;;;;;14.70;8.00;;;2.60;99.90;;;;;;5029877;28;20049;-66
2023/01/23 00:36:04;;;;;;;16.80;8.40;;;2.60;99.90;;;;;;5026006;28;20099;-67
2023/01/23 00:38:29;;;;;;;15.23;8.18;;;2.60;99.90;;;;;;5017666;28;20053;-66
2023/01/23 00:40:55;;;;;;;15.68;7.93;;;2.60;99.90;;;;;;5024045;28;20555;-66
2023/01/23 00:43:22;;;;;;;17.80;9.02;;;2.60;99.90;;;;;;5025466;28;20339;-66
2023/01/23 00:45:48;;;;;;;14.65;7.93;;;2.60;99.90;;;;;;5026025;28;20485;-66
2023/01/23 00:48:13;;;;;;;15.45;8.70;;;2.60;99.90;;;;;;5027775;28;20036;-66
2023/01/23 00:50:39;;;;;;;14.50;8.48;;;2.70;99.90;;;;;;5026754;28;20025;-66
2023/01/23 00:53:05;;;;;;;18.73;8.68;;;2.70;99.90;;;;;;5024504;28;20049;-66
2023/01/23 00:55:30;;;;;;;19.10;8.48;;;2.60;99.90;;;;;;5025869;28;20091;-66
2023/01/23 00:57:56;;;;;;;17.48;8.68;;;2.60;99.90;;;;;;5022246;28;20038;-66
2023/01/23 01:00:21;;;;;;;15.70;8.13;;;2.60;99.90;;;;;;5021322;28;20057;-67
2023/01/23 01:02:47;;;;;;;15.23;8.35;;;2.60;99.90;;;;;;5021719;28;20056;-66
2023/01/23 01:05:12;;;;;;;18.48;8.48;;;2.60;99.90;;;;;;5022014;28;20068;-66
2023/01/23 01:07:38;;;;;;;15.05;7.60;;;2.60;99.90;;;;;;5023016;28;20472;-66
2023/01/23 01:10:04;;;;;;;15.35;7.97;;;2.60;99.90;;;;;;5019658;28;20093;-66
2023/01/23 01:12:30;;;;;;;18.33;8.05;;;2.60;99.90;;;;;;5011076;28;20056;-66
2023/01/23 01:14:55;;;;;;;16.00;7.43;;;2.60;99.90;;;;;;5025920;28;20067;-67
2023/01/23 01:17:21;;;;;;;14.73;7.35;;;2.60;99.90;;;;;;5015323;28;20037;-66
2023/01/23 01:19:47;;;;;;;15.05;8.05;;;2.60;99.90;;;;;;5018544;28;20050;-66
2023/01/23 01:22:12;;;;;;;13.68;7.82;;;2.60;99.90;;;;;;5039094;28;20042;-66
2023/01/23 01:24:40;;;;;;;14.68;7.40;;;2.60;99.90;;;;;;5027120;28;20096;-66
2023/01/23 01:27:06;;;;;;;17.38;7.60;;;2.60;99.90;;;;;;5020638;28;20367;-66
2023/01/23 01:29:32;;;;;;;14.30;8.30;;;2.60;99.90;;;;;;5029664;28;20039;-66
2023/01/23 01:31:58;;;;;;;17.05;7.55;;;2.60;99.90;;;;;;5023183;28;20417;-66
2023/01/23 01:34:23;;;;;;;16.33;7.93;;;2.60;99.90;;;;;;5030074;28;20041;-66
2023/01/23 01:36:50;;;;;;;14.32;8.07;;;2.60;99.90;;;;;;5026197;28;20052;-66
2023/01/23 01:39:16;;;;;;;19.48;8.90;;;2.60;99.90;;;;;;5027263;28;20045;-66
2023/01/23 01:41:42;;;;;;;12.73;7.30;;;2.60;99.90;;;;;;5017871;28;20038;-67
2023/01/23 01:44:15;;;;;;;16.35;7.47;;;2.50;99.90;;;;;;5022572;28;20737;-66
2023/01/23 01:46:41;;;;;;;12.82;7.65;;;2.50;99.90;;;;;;5029764;28;20075;-66
2023/01/23 01:49:11;;;;;;;17.00;7.57;;;2.50;99.90;;;;;;5023680;28;20486;-66
2023/01/23 01:51:50;;;;;;;16.85;7.93;;;2.50;99.90;;;;;;5030423;28;20037;-66
2023/01/23 01:54:38;;;;;;;15.30;7.80;;;2.50;99.90;;;;;;5026587;28;20091;-66
2023/01/23 01:57:23;;;;;;;17.92;8.38;;;2.50;99.90;;;;;;5020090;28;20049;-66
2023/01/23 01:59:54;;;;;;;16.92;8.38;;;2.50;99.90;;;;;;5015277;28;20045;-66
2023/01/23 02:02:36;;;;;;;17.50;8.23;;;2.50;99.90;;;;;;5030581;28;20046;-66
2023/01/23 02:05:09;;;;;;;16.60;8.30;;;2.50;99.90;;;;;;5020299;28;20037;-66
2023/01/23 02:07:45;;;;;;;18.98;7.57;;;2.50;99.90;;;;;;5025629;28;20094;-67
2023/01/23 02:10:13;;;;;;;19.25;7.93;;;2.50;99.90;;;;;;5023065;28;20103;-67
2023/01/23 02:12:38;;;;;;;18.27;8.27;;;2.50;99.90;;;;;;5021902;28;20041;-66
2023/01/23 02:15:06;;;;;;;16.27;8.50;;;2.50;99.90;;;;;;5016574;28;20132;-66
2023/01/23 02:17:34;;;;;;;16.90;7.82;;;2.50;99.90;;;;;;5018017;28;20401;-66
2023/01/23 02:20:19;;;;;;;19.58;8.00;;;2.50;99.90;;;;;;5020905;28;20099;-66
2023/01/23 02:22:57;;;;;;;15.45;7.45;;;2.50;99.90;;;;;;5019932;28;20037;-67
2023/01/23 02:25:41;;;;;;;21.33;8.27;;;2.50;99.90;;;;;;5023225;28;20036;-66
2023/01/23 02:28:08;;;;;;;15.35;7.93;;;2.50;99.90;;;;;;5014984;28;20052;-66
2023/01/23 02:30:35;;;;;;;19.42;8.40;;;2.50;99.90;;;;;;5026186;28;20029;-66
2023/01/23 02:33:21;;;;;;;20.45;8.93;;;2.50;99.90;;;;;;5025857;28;20037;-66
2023/01/23 02:35:46;;;;;;;18.13;9.20;;;2.50;99.90;;;;;;5020302;28;20047;-67
2023/01/23 02:38:12;;;;;;;17.38;8.35;;;2.50;99.90;;;;;;5024567;28;20045;-66
2023/01/23 02:40:40;;;;;;;16.73;8.98;;;2.50;99.90;;;;;;5021562;28;20041;-66
2023/01/23 02:43:13;;;;;;;15.95;8.60;;;2.50;99.90;;;;;;5018598;28;20067;-67
2023/01/23 02:45:38;;;;;;;14.77;8.23;;;2.50;99.90;;;;;;5022350;28;20061;-66
2023/01/23 02:48:05;;;;;;;15.90;8.23;;;2.50;99.90;;;;;;5021332;28;20151;-66
2023/01/23 02:50:30;;;;;;;16.83;8.63;;;2.50;99.90;;;;;;5022836;28;20087;-66
2023/01/23 02:52:57;;;;;;;16.85;8.65;;;2.50;99.90;;;;;;5017619;28;21243;-66
2023/01/23 02:55:25;;;;;;;16.80;8.05;;;2.50;99.90;;;;;;5018477;28;20469;-67
2023/01/23 02:57:51;;;;;;;16.55;8.95;;;2.50;99.90;;;;;;5022549;28;20033;-67
2023/01/23 03:00:21;;;;;;;17.23;9.35;;;2.50;99.90;;;;;;5019777;28;20037;-66
2023/01/23 03:02:48;;;;;;;14.20;7.63;;;2.50;99.90;;;;;;5023220;28;20103;-66
2023/01/23 03:05:13;;;;;;;15.93;8.38;;;2.50;99.90;;;;;;5022993;28;20121;-66
2023/01/23 03:07:39;;;;;;;21.95;9.45;;;2.50;99.90;;;;;;5027645;28;20136;-66
2023/01/23 03:10:06;;;;;;;17.40;8.05;;;2.40;99.90;;;;;;5014465;28;20064;-66
2023/01/23 03:12:32;;;;;;;17.10;8.32;;;2.50;99.90;;;;;;5022517;28;20392;-66
2023/01/23 03:14:58;;;;;;;17.63;8.05;;;2.50;99.90;;;;;;5018349;28;20038;-66
2023/01/23 03:17:24;;;;;;;19.77;9.35;;;2.50;99.90;;;;;;5022190;28;20037;-67
2023/01/23 03:19:50;;;;;;;15.57;8.63;;;2.50;99.90;;;;;;5023103;28;20037;-66
2023/01/23 03:22:15;;;;;;;13.93;7.57;;;2.50;99.90;;;;;;5024337;28;20095;-67
2023/01/23 03:24:41;;;;;;;16.23;8.75;;;2.50;99.90;;;;;;5038615;28;20053;-67
2023/01/23 03:27:07;;;;;;;17.70;8.63;;;2.40;99.90;;;;;;5018510;28;20045;-66
2023/01/23 03:32:16;;;;;;;16.80;8.45;;;2.50;99.90;;;;;;5023763;28;20045;-66
2023/01/23 03:34:42;;;;;;;14.80;8.45;;;2.40;99.90;;;;;;5025966;28;20037;-66
2023/01/23 03:37:09;;;;;;;16.77;8.45;;;2.40;99.90;;;;;;5020994;28;20042;-66
2023/01/23 03:42:20;;;;;;;15.00;8.90;;;2.50;99.90;;;;;;5029101;28;20081;-66
2023/01/23 03:44:46;;;;;;;18.17;9.05;;;2.40;99.90;;;;;;5019703;28;20097;-66
2023/01/23 03:47:12;;;;;;;16.52;9.13;;;2.40;99.90;;;;;;5024408;28;20108;-66
2023/01/23 03:49:37;;;;;;;18.23;8.52;;;2.40;99.90;;;;;;5020280;28;20084;-67
2023/01/23 03:52:03;;;;;;;16.13;8.65;;;2.40;99.90;;;;;;5023589;28;20452;-66
2023/01/23 03:54:29;;;;;;;18.90;9.48;;;2.40;99.90;;;;;;5025363;28;20042;-66
2023/01/23 03:56:54;;;;;;;19.30;8.75;;;2.40;99.90;;;;;;5020270;28;20053;-67
2023/01/23 03:59:20;;;;;;;15.25;8.43;;;2.40;99.90;;;;;;5021520;28;20175;-67
2023/01/23 04:01:46;;;;;;;19.20;8.82;;;2.40;99.90;;;;;;5025430;28;20091;-67
2023/01/23 04:04:12;;;;;;;17.25;9.45;;;2.40;99.90;;;;;;5026959;28;20060;-66
2023/01/23 04:06:38;;;;;;;15.48;8.48;;;2.40;99.90;;;;;;5021963;28;20457;-67
2023/01/23 04:09:04;;;;;;;20.10;9.50;;;2.40;99.90;;;;;;5025017;28;20111;-66
2023/01/23 04:11:29;;;;;;;18.00;8.30;;;2.40;99.90;;;;;;5027271;28;20107;-67
2023/01/23 04:13:55;;;;;;;23.33;9.93;;;2.40;99.90;;;;;;5026665;28;20129;-67
2023/01/23 04:16:21;;;;;;;18.13;9.45;;;2.40;99.90;;;;;;5020877;28;20049;-67
2023/01/23 04:18:50;;;;;;;18.27;9.38;;;2.40;99.90;;;;;;5018300;28;20381;-66
2023/01/23 04:21:16;;;;;;;19.58;9.32;;;2.40;99.90;;;;;;5009323;28;20099;-66
2023/01/23 04:23:41;;;;;;;20.95;9.18;;;2.40;99.90;;;;;;5024587;28;20029;-66
2023/01/23 04:26:07;;;;;;;17.83;8.82;;;2.40;99.90;;;;;;5022828;28;20084;-67
2023/01/23 04:28:33;;;;;;;14.88;8.25;;;2.40;99.90;;;;;;5026596;28;20037;-67
2023/01/23 04:30:58;;;;;;;19.25;8.82;;;2.40;99.90;;;;;;5028142;28;20045;-66
2023/01/23 04:33:24;;;;;;;17.85;9.07;;;2.40;99.90;;;;;;5026930;28;20045;-67
2023/01/23 04:36:01;;;;;;;21.40;9.90;;;2.40;99.90;;;;;;5025644;28;20045;-67
2023/01/23 04:38:28;;;;;;;16.65;9.48;;;2.40;99.90;;;;;;5011784;28;20037;-66
2023/01/23 04:40:54;;;;;;;17.23;8.70;;;2.40;99.90;;;;;;5006457;28;20046;-66
2023/01/23 04:43:20;;;;;;;21.20;8.45;;;2.30;99.90;;;;;;5029413;28;20489;-66
2023/01/23 04:45:49;;;;;;;20.02;8.65;;;2.30;99.90;;;;;;5027877;28;20083;-67
2023/01/23 04:48:15;;;;;;;17.75;8.68;;;2.40;99.90;;;;;;5030039;28;20045;-66
2023/01/23 04:50:40;;;;;;;16.73;8.45;;;2.30;99.90;;;;;;5019271;28;20041;-66
2023/01/23 04:53:06;;;;;;;18.95;8.77;;;2.30;99.90;;;;;;5027610;28;20037;-66
2023/01/23 04:55:32;;;;;;;15.77;8.48;;;2.30;99.90;;;;;;5027674;28;20037;-67
2023/01/23 04:57:58;;;;;;;17.55;8.80;;;2.30;99.90;;;;;;5021274;28;20536;-66
2023/01/23 05:00:25;;;;;;;18.80;9.20;;;2.30;99.90;;;;;;5023809;28;20045;-66
2023/01/23 05:02:51;;;;;;;20.42;9.57;;;2.30;99.90;;;;;;5019209;28;20048;-66
2023/01/23 05:05:19;;;;;;;19.70;9.25;;;2.30;99.90;;;;;;5023301;28;20034;-67
2023/01/23 05:07:45;;;;;;;22.17;9.23;;;2.30;99.90;;;;;;5025718;28;20795;-66
2023/01/23 05:10:11;;;;;;;20.88;8.95;;;2.30;99.90;;;;;;5024602;28;20054;-66
2023/01/23 05:12:37;;;;;;;19.25;9.07;;;2.30;99.90;;;;;;5028401;28;20057;-66
2023/01/23 05:15:02;;;;;;;17.55;8.95;;;2.30;99.90;;;;;;5020009;28;20060;-66
2023/01/23 05:17:28;;;;;;;18.83;9.40;;;2.30;99.90;;;;;;5025224;28;20485;-67
2023/01/23 05:19:53;;;;;;;20.48;8.93;;;2.20;99.90;;;;;;5029335;28;20122;-66
2023/01/23 05:22:19;;;;;;;18.05;8.52;;;2.30;99.90;;;;;;5025751;28;20041;-67
2023/01/23 05:24:45;;;;;;;17.38;9.07;;;2.30;99.90;;;;;;5019891;28;20042;-66
2023/01/23 05:27:11;;;;;;;18.35;9.18;;;2.30;99.90;;;;;;5022580;28;20171;-66
2023/01/23 05:29:37;;;;;;;17.30;9.00;;;2.30;99.90;;;;;;5025033;28;20064;-66
2023/01/23 05:32:03;;;;;;;15.95;8.65;;;2.20;99.90;;;;;;5017065;28;20053;-66
2023/01/23 05:34:28;;;;;;;20.13;9.43;;;2.30;99.90;;;;;;5019803;28;20072;-66
2023/01/23 05:36:54;;;;;;;17.10;9.15;;;2.20;99.90;;;;;;5030583;28;20038;-66
2023/01/23 05:39:19;;;;;;;20.70;9.52;;;2.30;99.90;;;;;;5023625;28;20043;-66
2023/01/23 05:41:45;;;;;;;19.38;9.32;;;2.30;99.90;;;;;;5029110;28;20044;-66
2023/01/23 05:44:10;;;;;;;20.52;9.75;;;2.30;99.90;;;;;;5028216;28;20500;-66
2023/01/23 05:46:36;;;;;;;17.05;8.85;;;2.30;99.90;;;;;;5027699;28;20038;-66
2023/01/23 05:49:02;;;;;;;19.98;9.52;;;2.20;99.90;;;;;;5027115;28;20045;-66
2023/01/23 05:51:31;;;;;;;21.02;9.35;;;2.30;99.90;;;;;;5030713;28;20051;-66
2023/01/23 05:53:57;;;;;;;20.02;9.95;;;2.30;99.90;;;;;;5024772;28;20140;-67
2023/01/23 05:56:24;;;;;;;18.10;9.25;;;2.20;99.90;;;;;;5022270;28;20033;-66
2023/01/23 05:58:49;;;;;;;21.77;8.77;;;2.20;99.90;;;;;;5015770;28;20050;-66
2023/01/23 06:01:15;;;;;;;18.00;9.05;;;2.20;99.90;;;;;;5034488;28;20056;-66
2023/01/23 06:03:41;;;;;;;20.00;8.93;;;2.20;99.90;;;;;;5014165;28;20029;-66
2023/01/23 06:06:06;;;;;;;19.27;9.85;;;2.20;99.90;;;;;;5022377;28;20307;-66
2023/01/23 06:08:32;;;;;;;18.25;9.55;;;2.20;99.90;;;;;;5025373;28;20041;-67
2023/01/23 06:10:58;;;;;;;17.50;8.55;;;2.20;99.90;;;;;;5023143;28;20105;-66
2023/01/23 06:13:25;;;;;;;19.30;9.85;;;2.20;99.90;;;;;;5019711;28;20140;-66
2023/01/23 06:15:51;;;;;;;20.30;9.90;;;2.20;99.90;;;;;;5019332;28;20116;-66
2023/01/23 06:18:18;;;;;;;22.23;10.05;;;2.20;99.90;;;;;;5022062;28;20160;-66
2023/01/23 06:20:43;;;;;;;16.50;9.15;;;2.20;99.90;;;;;;5020202;28;20038;-66
2023/01/23 06:23:09;;;;;;;21.30;9.98;;;2.20;99.90;;;;;;5013536;28;20580;-66
2023/01/23 06:25:36;;;;;;;20.13;9.35;;;2.20;99.90;;;;;;5011813;28;20033;-66
2023/01/23 06:28:01;;;;;;;18.42;9.13;;;2.20;99.90;;;;;;5016389;28;20042;-66
2023/01/23 06:30:27;;;;;;;22.05;9.15;;;2.20;99.90;;;;;;5011487;28;20065;-66
2023/01/23 06:32:53;;;;;;;19.23;8.52;;;2.20;99.90;;;;;;5025007;28;20064;-66
2023/01/23 06:35:18;;;;;;;20.50;9.27;;;2.20;99.90;;;;;;5021450;28;20045;-66
2023/01/23 06:37:44;;;;;;;22.05;9.82;;;2.20;99.90;;;;;;5017605;28;20073;-66
2023/01/23 06:40:13;;;;;;;20.80;9.65;;;2.20;99.90;;;;;;5010933;28;20044;-66
2023/01/23 06:42:42;;;;;;;19.83;9.02;;;2.20;99.90;;;;;;5009407;28;20057;-66
2023/01/23 06:45:09;;;;;;;17.08;8.77;;;2.20;99.90;;;;;;5022050;28;20084;-65
2023/01/23 06:47:34;;;;;;;17.17;9.23;;;2.30;99.90;;;;;;5028212;28;20133;-66
2023/01/23 06:50:01;;;;;;;17.92;8.80;;;2.30;99.90;;;;;;5025114;28;20124;-66
2023/01/23 06:52:27;;;;;;;16.25;8.93;;;2.30;99.90;;;;;;5026817;28;20092;-66
2023/01/23 06:54:53;;;;;;;17.65;8.52;;;2.30;99.90;;;;;;5020555;28;20405;-66
2023/01/23 06:57:18;;;;;;;17.33;8.85;;;2.30;99.90;;;;;;5022664;28;20041;-66
2023/01/23 06:59:44;;;;;;;16.60;8.68;;;2.30;99.90;;;;;;5020835;28;20044;-66
2023/01/23 07:02:10;;;;;;;21.85;10.05;;;2.30;99.90;;;;;;5024149;28;20048;-66
2023/01/23 07:04:36;;;;;;;20.15;9.15;;;2.30;99.90;;;;;;5022484;28;20128;-66
2023/01/23 07:07:02;;;;;;;17.48;8.82;;;2.30;99.90;;;;;;5023954;28;20172;-66
2023/01/23 07:09:27;;;;;;;19.38;8.55;;;2.30;99.90;;;;;;5024751;28;20052;-66
2023/01/23 07:11:53;;;;;;;19.65;9.63;;;2.30;99.90;;;;;;5027389;28;20195;-66
2023/01/23 07:14:19;;;;;;;21.20;9.68;;;2.30;99.90;;;;;;5024492;28;20046;-66
2023/01/23 07:16:44;;;;;;;16.30;8.70;;;2.30;99.90;;;;;;5021853;28;20116;-66
2023/01/23 07:19:10;;;;;;;16.10;8.70;;;2.30;99.90;;;;;;5026214;28;20042;-66
2023/01/23 07:21:35;;;;;;;19.33;8.88;;;2.30;99.90;;;;;;5022224;28;20071;-66
2023/01/23 07:24:01;;;;;;;17.98;7.93;;;2.30;99.90;;;;;;5025904;28;20112;-66
2023/01/23 07:26:27;;;;;;;18.30;8.75;;;2.30;99.90;;;;;;5023811;28;20034;-66
2023/01/23 07:28:52;;;;;;;16.80;8.35;;;2.30;99.90;;;;;;5025925;28;20501;-66
2023/01/23 07:31:18;;;;;;;16.48;8.05;;;2.30;99.90;;;;;;5025066;28;20065;-66
2023/01/23 07:33:44;;;;;;;14.57;7.45;;;2.30;99.90;;;;;;5027990;28;20046;-66
2023/01/23 07:36:12;;;;;;;17.10;7.70;;;2.30;99.90;;;;;;5027155;28;20115;-66
2023/01/23 07:38:38;;;;;;;15.52;7.82;;;2.30;99.90;;;;;;5014105;28;20788;-66
2023/01/23 07:41:04;;;;;;;17.02;7.72;;;2.30;99.90;;;;;;5009703;28;20033;-66
2023/01/23 07:43:29;;;;;;;18.80;8.45;;;2.30;99.90;;;;;;5033294;28;20544;-66
2023/01/23 07:45:58;;;;;;;13.77;7.28;;;2.40;99.90;;;;;;5027063;28;20037;-66
2023/01/23 07:48:23;;;;;;;15.38;7.28;;;2.30;99.90;;;;;;5025147;28;20056;-66
2023/01/23 07:50:49;;;;;;;16.17;7.53;;;2.30;99.90;;;;;;5024136;28;20038;-67
2023/01/23 07:53:14;;;;;;;14.18;7.15;;;2.40;99.90;;;;;;5026993;28;20037;-66
2023/01/23 07:55:40;;;;;;;14.70;8.10;;;2.30;99.90;;;;;;5028015;28;20037;-66
2023/01/23 07:58:05;;;;;;;16.23;8.10;;;2.40;99.90;;;;;;5029158;28;20038;-66
2023/01/23 08:00:31;;;;;;;12.63;7.38;;;2.40;99.90;;;;;;5027941;28;20153;-66
2023/01/23 08:02:57;;;;;;;18.05;8.15;;;2.40;99.90;;;;;;5030998;28;20060;-66
2023/01/23 08:05:22;;;;;;;15.38;7.20;;;2.30;99.90;;;;;;5031485;28;20074;-66
2023/01/23 08:07:48;;;;;;;15.25;7.45;;;2.40;99.90;;;;;;5021959;28;20049;-66
2023/01/23 08:10:14;;;;;;;16.92;7.85;;;2.40;99.90;;;;;;5029542;28;20057;-66
2023/01/23 08:12:39;;;;;;;16.65;8.40;;;2.40;99.90;;;;;;5029156;28;20392;-66
2023/01/23 08:15:06;;;;;;;16.95;7.97;;;2.40;99.90;;;;;;5024060;28;20127;-66
2023/01/23 08:17:31;;;;;;;13.23;7.35;;;2.40;99.90;;;;;;5031470;28;20099;-66
2023/01/23 08:19:57;;;;;;;13.88;7.97;;;2.40;99.90;;;;;;5026589;28;20738;-66
2023/01/23 08:22:22;;;;;;;17.27;9.10;;;2.40;99.90;;;;;;5026314;28;20547;-66
2023/01/23 08:24:48;;;;;;;16.70;7.88;;;2.40;99.90;;;;;;5029829;28;20507;-66
2023/01/23 08:27:13;;;;;;;13.95;7.53;;;2.40;99.90;;;;;;5028742;28;20495;-66
2023/01/23 08:29:39;;;;;;;14.02;7.43;;;2.50;99.90;;;;;;5029337;28;20140;-66
2023/01/23 08:32:05;;;;;;;15.32;7.28;;;2.50;99.90;;;;;;5023373;28;20033;-66
2023/01/23 08:34:30;;;;;;;14.85;7.63;;;2.50;99.90;;;;;;5019672;28;20087;-66
2023/01/23 08:36:56;;;;;;;11.35;6.57;;;2.50;99.90;;;;;;5013378;28;20080;-66
2023/01/23 08:39:23;;;;;;;16.25;7.50;;;2.50;99.90;;;;;;5030402;28;20033;-66
2023/01/23 08:41:49;;;;;;;13.68;6.68;;;2.50;99.90;;;;;;5027366;28;20067;-66
2023/01/23 08:44:14;;;;;;;16.13;7.38;;;2.60;99.90;;;;;;5022071;28;20034;-66
2023/01/23 08:46:41;;;;;;;13.23;7.05;;;2.60;99.90;;;;;;5028659;28;20075;-66
2023/01/23 08:49:07;;;;;;;11.85;7.25;;;2.60;99.90;;;;;;5030916;28;20041;-66
2023/01/23 08:51:33;;;;;;;13.93;6.80;;;2.60;99.90;;;;;;5019093;28;20037;-66
2023/01/23 08:53:58;;;;;;;11.65;6.20;;;2.70;99.90;;;;;;5023332;28;20123;-66
2023/01/23 08:56:24;;;;;;;13.00;6.38;;;2.70;99.90;;;;;;5038083;28;20048;-66
2023/01/23 08:58:50;;;;;;;16.90;6.90;;;2.70;99.90;;;;;;5019193;28;20045;-66
2023/01/23 09:01:24;;;;;;;17.17;7.05;;;2.80;99.90;;;;;;5023024;28;20420;-67
2023/01/23 09:03:50;;;;;;;10.10;5.57;;;2.80;99.90;;;;;;5021904;28;20382;-66
2023/01/23 09:06:19;;;;;;;10.15;5.60;;;2.80;99.90;;;;;;5028001;28;20053;-66
2023/01/23 09:08:45;;;;;;;13.43;7.07;;;2.90;99.90;;;;;;5027461;28;20057;-66
2023/01/23 09:11:13;;;;;;;10.73;5.63;;;2.90;99.90;;;;;;5020635;28;22832;-66
2023/01/23 09:13:39;;;;;;;13.82;5.95;;;2.90;99.90;;;;;;5031545;28;20433;-66
2023/01/23 09:16:09;;;;;;;14.13;5.85;;;2.90;99.90;;;;;;5027496;28;20053;-66
2023/01/23 09:18:35;;;;;;;10.07;6.13;;;3.00;99.90;;;;;;5031420;28;20083;-66
2023/01/23 09:21:15;;;;;;;10.82;6.03;;;3.00;99.90;;;;;;5026501;28;20436;-66
2023/01/23 09:23:40;;;;;;;11.60;6.40;;;3.00;99.90;;;;;;5029990;28;20069;-67
2023/01/23 09:26:09;;;;;;;12.10;5.82;;;3.10;99.90;;;;;;5030057;28;20469;-66
2023/01/23 09:28:36;;;;;;;10.52;6.30;;;3.10;99.90;;;;;;5025981;28;20045;-66
2023/01/23 09:31:03;;;;;;;12.65;6.05;;;3.10;99.90;;;;;;5027311;28;20140;-67
2023/01/23 09:33:29;;;;;;;11.43;6.13;;;3.20;99.90;;;;;;5029102;28;20056;-66
2023/01/23 09:35:54;;;;;;;8.77;5.50;;;3.10;99.90;;;;;;5011683;28;20037;-66
2023/01/23 09:38:20;;;;;;;11.15;6.15;;;3.20;99.90;;;;;;5028812;28;20064;-66
2023/01/23 09:40:50;;;;;;;11.10;6.05;;;3.20;99.90;;;;;;5026730;28;20084;-66
2023/01/23 09:43:34;;;;;;;9.95;6.22;;;3.30;99.90;;;;;;5028358;28;20046;-66
2023/01/23 09:46:09;;;;;;;14.20;7.13;;;3.20;99.90;;;;;;5024817;28;20468;-66
2023/01/23 09:48:47;;;;;;;13.30;6.57;;;3.30;99.90;;;;;;5030264;28;20398;-67
2023/01/23 09:51:27;;;;;;;11.95;6.80;;;3.30;99.90;;;;;;5029075;28;20030;-67
2023/01/23 09:53:58;;;;;;;14.23;6.55;;;3.30;99.90;;;;;;5029314;28;20041;-67
2023/01/23 09:56:28;;;;;;;10.40;6.85;;;3.40;99.90;;;;;;5028079;28;20034;-66
2023/01/23 09:59:09;;;;;;;;;;;3.40;99.90;;;;;;5030680;28;20119;-66
2023/01/23 10:01:36;;;;;;;9.70;6.15;;;3.50;99.90;;;;;;5010223;28;19998;-67
2023/01/23 10:04:03;;;;;;;12.23;6.35;;;3.50;99.90;;;;;;5029042;28;20069;-67
2023/01/23 10:06:56;;;;;;;12.63;7.00;;;3.50;99.90;;;;;;5028565;28;20084;-67
2023/01/23 10:09:43;;;;;;;11.88;7.18;;;3.50;99.90;;;;;;5013308;28;20140;-67
2023/01/23 10:12:31;;;;;;;14.55;6.55;;;3.60;99.90;;;;;;5030526;28;20048;-67
2023/01/23 10:15:33;;;;;;;13.27;6.30;;;3.50;99.90;;;;;;5027336;28;20049;-67
2023/01/23 10:18:06;;;;;;;11.80;6.93;;;3.50;99.90;;;;;;5025175;28;20120;-67
2023/01/23 10:20:56;;;;;;;11.43;6.53;;;3.50;99.90;;;;;;5027588;28;20045;-66
2023/01/23 10:23:40;;;;;;;14.88;7.28;;;3.50;99.90;;;;;;5025903;28;20041;-67
2023/01/23 10:26:14;;;;;;;15.02;6.40;;;3.60;99.90;;;;;;5026851;28;20041;-67
2023/01/23 10:28:42;;;;;;;12.63;6.85;;;3.60;99.90;;;;;;5026350;28;20044;-67
2023/01/23 10:31:22;;;;;;;14.00;7.10;;;3.60;99.90;;;;;;5026101;28;20132;-67
2023/01/23 10:34:15;;;;;;;14.23;6.97;;;3.60;99.90;;;;;;5015568;28;20050;-66
2023/01/23 10:37:08;;;;;;;13.98;7.43;;;3.60;99.90;;;;;;5024418;28;20068;-67
2023/01/23 10:40:00;;;;;;;13.93;7.10;;;3.60;99.90;;;;;;5026243;28;20049;-66
2023/01/23 10:42:27;;;;;;;13.32;7.20;;;3.60;99.90;;;;;;5028829;28;20045;-66
2023/01/23 10:44:52;;;;;;;15.57;7.35;;;3.60;99.90;;;;;;5025951;28;20385;-67
2023/01/23 10:47:36;;;;;;;11.23;6.88;;;3.60;99.90;;;;;;5023588;28;20034;-67
2023/01/23 10:50:04;;;;;;;12.48;7.45;;;3.70;99.90;;;;;;5018462;28;20143;-67
2023/01/23 10:52:34;;;;;;;12.57;7.28;;;3.70;99.90;;;;;;5021472;28;20049;-67
2023/01/23 10:55:00;;;;;;;13.13;7.30;;;3.70;99.90;;;;;;5014416;28;20049;-67
2023/01/23 10:57:29;;;;;;;13.88;7.80;;;3.70;99.90;;;;;;5029474;28;20033;-67
2023/01/23 10:59:59;;;;;;;11.13;6.78;;;3.70;99.90;;;;;;5024810;28;20095;-67
2023/01/23 11:02:29;;;;;;;13.52;6.78;;;3.70;99.90;;;;;;5027146;28;20445;-67
2023/01/23 11:04:55;;;;;;;11.25;7.05;;;3.80;99.90;;;;;;5026276;28;20073;-66
2023/01/23 11:07:23;;;;;;;16.70;8.43;;;3.80;99.90;;;;;;5028684;28;20088;-67
2023/01/23 11:09:55;;;;;;;13.55;7.05;;;3.70;99.90;;;;;;5024764;28;20068;-67
2023/01/23 11:12:27;;;;;;;13.77;7.75;;;3.80;99.90;;;;;;5030671;28;20060;-67
2023/01/23 11:15:11;;;;;;;15.55;7.45;;;3.80;99.90;;;;;;5024611;28;20087;-67
2023/01/23 11:17:37;;;;;;;17.13;8.55;;;3.80;99.90;;;;;;5029203;28;20409;-67
2023/01/23 11:20:30;;;;;;;14.25;8.15;;;3.80;99.90;;;;;;5021892;28;20033;-67
2023/01/23 11:23:00;;;;;;;14.73;8.32;;;3.80;99.90;;;;;;5010057;28;20069;-67
2023/01/23 11:25:38;;;;;;;12.73;7.07;;;3.80;99.90;;;;;;5018218;28;20045;-67
2023/01/23 11:28:29;;;;;;;15.52;7.97;;;3.80;99.90;;;;;;5020516;28;20033;-66
2023/01/23 11:31:04;;;;;;;17.02;7.90;;;3.80;99.90;;;;;;5023239;28;20417;-66
2023/01/23 11:33:41;;;;;;;13.77;8.52;;;3.80;99.90;;;;;;5024050;28;20049;-67
2023/01/23 11:36:15;;;;;;;16.02;8.20;;;3.80;99.90;;;;;;5021251;28;20037;-68
2023/01/23 11:38:46;;;;;;;15.88;8.38;;;3.80;99.90;;;;;;5024651;28;20043;-66
2023/01/23 11:41:13;;;;;;;13.00;7.95;;;3.80;99.90;;;;;;5026556;28;20034;-67
2023/01/23 11:43:39;;;;;;;14.88;8.23;;;3.80;99.90;;;;;;5026608;28;20033;-67
2023/01/23 11:46:05;;;;;;;15.20;8.43;;;3.80;99.90;;;;;;5025430;28;20128;-66
2023/01/23 11:48:58;;;;;;;15.45;8.38;;;3.80;99.90;;;;;;5025834;28;20405;-67
2023/01/23 11:51:56;;;;;;;14.77;8.23;;;3.80;99.90;;;;;;5023147;28;20045;-67
2023/01/23 11:54:41;;;;;;;14.10;8.05;;;3.80;99.90;;;;;;5025626;28;20404;-67
2023/01/23 11:57:31;;;;;;;13.48;8.30;;;3.90;99.90;;;;;;5029556;28;20037;-67
2023/01/23 12:00:37;;;;;;;13.68;7.68;;;3.90;99.90;;;;;;5019257;28;20049;-67
2023/01/23 12:03:29;;;;;;;15.50;7.95;;;3.90;99.90;;;;;;5019059;28;20685;-67
2023/01/23 12:05:55;;;;;;;18.92;8.73;;;3.90;99.90;;;;;;5021898;28;20397;-67
2023/01/23 12:08:38;;;;;;;16.77;9.07;;;3.90;99.90;;;;;;5016137;28;20042;-67
2023/01/23 12:11:11;;;;;;;19.00;9.57;;;3.90;99.90;;;;;;5020980;28;20049;-67
2023/01/23 12:14:04;;;;;;;16.70;8.95;;;3.90;99.90;;;;;;5016432;28;20037;-67
2023/01/23 12:17:01;;;;;;;16.50;9.40;;;3.90;99.90;;;;;;5008193;28;20088;-67
2023/01/23 12:20:10;;;;;;;18.40;9.23;;;3.90;99.90;;;;;;5020299;28;20076;-67
2023/01/23 12:22:53;;;;;;;17.87;9.47;;;3.90;99.90;;;;;;5028709;28;20124;-67
2023/01/23 12:25:39;;;;;;;18.33;8.80;;;3.90;99.90;;;;;;5030170;28;20064;-67
2023/01/23 12:28:42;;;;;;;18.33;9.65;;;3.90;99.90;;;;;;5026601;28;20042;-67
2023/01/23 12:31:28;;;;;;;17.65;9.38;;;3.90;99.90;;;;;;5025362;28;20417;-67
2023/01/23 12:34:06;;;;;;;20.50;10.73;;;3.90;99.90;;;;;;5026499;28;20072;-67
2023/01/23 12:36:55;;;;;;;20.13;10.25;;;3.90;99.90;;;;;;5030827;28;20047;-67
2023/01/23 12:39:31;;;;;;;20.95;9.85;;;3.90;99.90;;;;;;5032443;28;20119;-67
2023/01/23 12:42:19;;;;;;;18.27;10.38;;;4.00;99.90;;;;;;5023536;28;20120;-67
2023/01/23 12:44:44;;;;;;;19.15;9.73;;;4.00;99.90;;;;;;5026505;28;20159;-67
2023/01/23 12:47:17;;;;;;;21.38;10.93;;;3.90;99.90;;;;;;5026373;28;20487;-67
2023/01/23 12:49:52;;;;;;;20.60;11.23;;;4.00;99.90;;;;;;5028094;28;20512;-67
2023/01/23 12:52:27;;;;;;;20.42;10.52;;;4.00;99.90;;;;;;5028914;28;20049;-67
2023/01/23 12:55:22;;;;;;;20.88;11.32;;;4.10;99.90;;;;;;5026060;28;20056;-67
2023/01/23 12:57:53;;;;;;;19.50;9.65;;;4.10;99.90;;;;;;5042563;28;20045;-67
2023/01/23 13:00:24;;;;;;;18.55;10.18;;;4.10;99.90;;;;;;5028581;28;20371;-67
2023/01/23 13:03:16;;;;;;;17.02;10.13;;;4.10;99.90;;;;;;5026296;28;20042;-67
2023/01/23 13:06:00;;;;;;;20.13;9.88;;;4.20;99.90;;;;;;5013954;28;20509;-67
2023/01/23 13:08:30;;;;;;;20.25;10.07;;;4.20;99.90;;;;;;5016510;28;20029;-67